Time;durP1;ratioP1;P1;durP2;ratioP2;P2;SDS_P1;SDS_P2;PMS_P1;PMS_P2;Temp;Humidity;BMP_temperature;BMP_pressure;BME280_temperature;BME280_humidity;BME280_pressure;Samples;Min_cycle;Max_cycle;Signal;HPM_P1;HPM_P2
2020/12/31 00:01:07;;;;;;;;;;;22.10;38.50;;;;;;1546003;75;728;-70
2020/12/31 00:03:09;;;;;;;;;;;22.10;38.80;;;;;;1550761;75;723;-70
2020/12/31 00:05:11;;;;;;;;;;;22.10;38.70;;;;;;1546838;75;1138;-72
2020/12/31 00:07:13;;;;;;;;;;;22.10;38.90;;;;;;1543695;75;784;-71
2020/12/31 00:09:15;;;;;;;;;;;22.20;38.90;;;;;;1547280;75;733;-73
2020/12/31 00:11:16;;;;;;;;;;;22.20;38.80;;;;;;1549460;75;1939;-70
2020/12/31 00:13:18;;;;;;;;;;;22.20;38.80;;;;;;1547682;75;711;-70
2020/12/31 00:15:21;;;;;;;;;;;22.20;38.70;;;;;;1546398;75;1143;-70
2020/12/31 00:17:23;;;;;;;;;;;22.20;38.70;;;;;;1547472;75;782;-70
2020/12/31 00:19:24;;;;;;;;;;;22.20;38.90;;;;;;1547683;75;713;-70
2020/12/31 00:21:26;;;;;;;;;;;22.20;38.80;;;;;;1546633;77;745;-74
2020/12/31 00:23:28;;;;;;;;;;;22.20;38.90;;;;;;1547316;75;867;-70
2020/12/31 00:25:30;;;;;;;;;;;22.20;38.90;;;;;;1546977;75;1140;-71
2020/12/31 00:27:32;;;;;;;;;;;22.20;39.10;;;;;;1547466;77;748;-70
2020/12/31 00:29:34;;;;;;;;;;;22.20;39.10;;;;;;1547846;75;718;-72
2020/12/31 00:31:36;;;;;;;;;;;22.30;39.20;;;;;;1547694;75;2099;-70
2020/12/31 00:33:37;;;;;;;;;;;22.20;39.20;;;;;;1547164;75;819;-72
2020/12/31 00:35:39;;;;;;;;;;;22.30;39.30;;;;;;1547513;75;1160;-75
2020/12/31 00:37:41;;;;;;;;;;;22.30;39.30;;;;;;1542770;77;690;-73
2020/12/31 00:39:43;;;;;;;;;;;22.30;39.20;;;;;;1547766;75;717;-70
2020/12/31 00:41:45;;;;;;;;;;;22.30;39.30;;;;;;1547060;77;748;-72
2020/12/31 00:43:47;;;;;;;;;;;22.30;39.30;;;;;;1547002;77;751;-71
2020/12/31 00:45:49;;;;;;;;;;;22.30;39.50;;;;;;1543398;75;1150;-70
2020/12/31 00:47:51;;;;;;;;;;;22.30;39.60;;;;;;1547846;75;741;-70
2020/12/31 00:49:53;;;;;;;;;;;22.30;39.70;;;;;;1545739;75;742;-71
2020/12/31 00:51:54;;;;;;;;;;;22.30;39.80;;;;;;1545772;75;1948;-71
2020/12/31 00:53:56;;;;;;;;;;;22.30;39.90;;;;;;1546513;75;750;-71
2020/12/31 00:55:58;;;;;;;;;;;22.30;39.90;;;;;;1546358;75;1130;-71
2020/12/31 00:58:01;;;;;;;;;;;22.40;40.00;;;;;;1554555;75;815;-72
2020/12/31 01:00:04;;;;;;;;;;;22.40;40.00;;;;;;1544212;75;817;-71
2020/12/31 01:02:06;;;;;;;;;;;22.40;40.10;;;;;;1548193;75;856;-73
2020/12/31 01:04:08;;;;;;;;;;;22.30;40.20;;;;;;1546332;75;814;-75
2020/12/31 01:06:10;;;;;;;;;;;22.30;40.30;;;;;;1545023;75;1137;-71
2020/12/31 01:08:12;;;;;;;;;;;22.40;40.40;;;;;;1545006;75;799;-71
2020/12/31 01:10:13;;;;;;;;;;;22.30;40.50;;;;;;1548186;75;715;-70
2020/12/31 01:12:15;;;;;;;;;;;22.30;40.50;;;;;;1547491;75;1931;-70
2020/12/31 01:14:17;;;;;;;;;;;22.30;40.70;;;;;;1547268;75;730;-70
2020/12/31 01:16:19;;;;;;;;;;;22.30;40.70;;;;;;1543771;75;1148;-67
2020/12/31 01:18:21;;;;;;;;;;;22.40;40.60;;;;;;1547496;76;758;-71
2020/12/31 01:20:23;;;;;;;;;;;22.40;40.50;;;;;;1548511;75;679;-71
2020/12/31 01:22:25;;;;;;;;;;;22.40;40.50;;;;;;1545573;75;809;-72
2020/12/31 01:24:26;;;;;;;;;;;22.40;40.60;;;;;;1547063;76;745;-72
2020/12/31 01:26:33;;;;;;;;;;;22.50;40.70;;;;;;1543642;75;1126;-73
2020/12/31 01:28:35;;;;;;;;;;;22.50;40.80;;;;;;1543012;75;1524;-72
2020/12/31 01:30:36;;;;;;;;;;;22.40;40.70;;;;;;1547422;75;714;-74
2020/12/31 01:32:38;;;;;;;;;;;22.50;40.80;;;;;;1544715;75;1949;-74
2020/12/31 01:34:40;;;;;;;;;;;22.40;40.70;;;;;;1548045;75;747;-70
2020/12/31 01:36:42;;;;;;;;;;;22.40;40.80;;;;;;1546022;75;1099;-70
2020/12/31 01:38:45;;;;;;;;;;;22.40;40.70;;;;;;1546760;75;725;-70
2020/12/31 01:40:47;;;;;;;;;;;22.40;40.80;;;;;;1542933;75;742;-74
2020/12/31 01:42:49;;;;;;;;;;;22.40;40.90;;;;;;1543904;77;720;-73
2020/12/31 01:44:51;;;;;;;;;;;22.40;40.90;;;;;;1547162;75;797;-72
2020/12/31 01:46:53;;;;;;;;;;;22.40;40.80;;;;;;1544438;75;1122;-74
2020/12/31 01:48:55;;;;;;;;;;;22.40;40.90;;;;;;1546756;75;781;-75
2020/12/31 01:50:57;;;;;;;;;;;22.40;40.90;;;;;;1544505;75;754;-71
2020/12/31 01:52:59;;;;;;;;;;;22.40;40.80;;;;;;1548204;77;1931;-71
2020/12/31 01:55:01;;;;;;;;;;;22.40;40.70;;;;;;1546202;75;726;-72
2020/12/31 01:57:03;;;;;;;;;;;22.40;40.70;;;;;;1545102;75;754;-72
2020/12/31 01:59:05;;;;;;;;;;;22.50;40.70;;;;;;1545806;75;724;-72
2020/12/31 02:01:07;;;;;;;;;;;22.50;40.80;;;;;;1541759;75;881;-75
2020/12/31 02:03:09;;;;;;;;;;;22.50;40.70;;;;;;1547619;75;743;-71
2020/12/31 02:05:11;;;;;;;;;;;22.50;40.60;;;;;;1543736;75;1137;-71
2020/12/31 02:07:13;;;;;;;;;;;22.60;40.60;;;;;;1542648;75;805;-74
2020/12/31 02:09:15;;;;;;;;;;;22.50;40.80;;;;;;1546731;75;741;-72
2020/12/31 02:11:17;;;;;;;;;;;22.50;41.00;;;;;;1545095;75;737;-70
2020/12/31 02:13:19;;;;;;;;;;;22.50;41.10;;;;;;1543534;75;1948;-70
2020/12/31 02:15:21;;;;;;;;;;;22.50;41.20;;;;;;1544207;75;1136;-70
2020/12/31 02:17:23;;;;;;;;;;;22.50;41.20;;;;;;1541897;75;722;-71
2020/12/31 02:19:25;;;;;;;;;;;22.50;41.20;;;;;;1541292;75;796;-72
2020/12/31 02:21:27;;;;;;;;;;;22.60;41.10;;;;;;1544349;75;790;-71
2020/12/31 02:23:29;;;;;;;;;;;22.70;41.20;;;;;;1537725;75;752;-71
2020/12/31 02:25:31;;;;;;;;;;;22.60;41.00;;;;;;1541196;75;1137;-71
2020/12/31 02:27:33;;;;;;;;;;;22.70;41.00;;;;;;1540022;75;728;-71
2020/12/31 02:29:35;;;;;;;;;;;22.70;41.00;;;;;;1535079;75;795;-72
2020/12/31 02:31:37;;;;;;;;;;;22.70;41.00;;;;;;1537892;75;788;-72
2020/12/31 02:33:40;;;;;;;;;;;22.70;41.00;;;;;;1538636;75;1941;-70
2020/12/31 02:35:42;;;;;;;;;;;22.70;41.00;;;;;;1537886;75;1957;-73
2020/12/31 02:37:44;;;;;;;;;;;22.70;41.00;;;;;;1545939;75;738;-65
2020/12/31 02:39:46;;;;;;;;;;;22.70;41.00;;;;;;1547216;75;785;-67
2020/12/31 02:41:48;;;;;;;;;;;22.60;40.90;;;;;;1536290;75;963;-70
2020/12/31 02:43:50;;;;;;;;;;;22.60;41.00;;;;;;1549104;75;646;-71
2020/12/31 02:45:51;;;;;;;;;;;22.70;41.10;;;;;;1547828;75;1183;-71
2020/12/31 02:47:53;;;;;;;;;;;22.70;41.10;;;;;;1547719;75;872;-72
2020/12/31 02:49:55;;;;;;;;;;;22.80;41.00;;;;;;1547624;75;671;-72
2020/12/31 02:51:57;;;;;;;;;;;22.80;41.00;;;;;;1547385;75;1955;-75
2020/12/31 02:53:59;;;;;;;;;;;22.80;40.90;;;;;;1547218;75;739;-72
2020/12/31 02:56:01;;;;;;;;;;;22.80;40.70;;;;;;1546554;75;1141;-75
2020/12/31 02:58:03;;;;;;;;;;;22.80;40.60;;;;;;1544109;75;753;-73
2020/12/31 03:00:05;;;;;;;;;;;22.80;40.70;;;;;;1546641;75;651;-71
2020/12/31 03:02:07;;;;;;;;;;;22.80;40.70;;;;;;1544454;75;810;-70
2020/12/31 03:04:09;;;;;;;;;;;22.80;40.70;;;;;;1544364;75;809;-71
2020/12/31 03:06:10;;;;;;;;;;;22.80;40.80;;;;;;1539915;75;1142;-73
2020/12/31 03:08:12;;;;;;;;;;;22.80;40.80;;;;;;1547907;75;870;-70
2020/12/31 03:10:14;;;;;;;;;;;22.80;40.80;;;;;;1546548;75;731;-71
2020/12/31 03:12:16;;;;;;;;;;;22.80;40.90;;;;;;1542935;75;1958;-70
2020/12/31 03:14:18;;;;;;;;;;;22.80;40.90;;;;;;1547942;75;771;-71
2020/12/31 03:16:20;;;;;;;;;;;22.80;40.90;;;;;;1547133;75;1129;-70
2020/12/31 03:18:22;;;;;;;;;;;22.90;41.00;;;;;;1542536;75;772;-71
2020/12/31 03:20:24;;;;;;;;;;;22.90;41.00;;;;;;1546697;75;750;-70
2020/12/31 03:22:26;;;;;;;;;;;22.90;40.90;;;;;;1546917;75;743;-71
2020/12/31 03:24:28;;;;;;;;;;;22.90;40.80;;;;;;1545718;74;733;-71
2020/12/31 03:26:29;;;;;;;;;;;22.80;40.70;;;;;;1549386;74;214093;-72
2020/12/31 03:28:31;;;;;;;;;;;22.80;40.70;;;;;;1535720;76;750;-74
2020/12/31 03:30:33;;;;;;;;;;;22.80;40.90;;;;;;1529925;77;667;-73
2020/12/31 03:32:35;;;;;;;;;;;22.90;41.00;;;;;;1530652;76;1951;-73
2020/12/31 03:34:37;;;;;;;;;;;22.90;40.90;;;;;;1532802;77;876;-73
2020/12/31 03:36:39;;;;;;;;;;;22.90;41.00;;;;;;1522434;77;1207;-73
2020/12/31 03:38:41;;;;;;;;;;;22.90;41.00;;;;;;1525264;77;775;-73
2020/12/31 03:40:42;;;;;;;;;;;22.90;41.00;;;;;;1525074;76;752;-74
2020/12/31 03:42:44;;;;;;;;;;;22.90;41.10;;;;;;1532969;77;813;-74
2020/12/31 03:44:46;;;;;;;;;;;22.80;41.00;;;;;;1528044;77;744;-74
2020/12/31 03:46:48;;;;;;;;;;;22.90;41.10;;;;;;1527396;77;1129;-74
2020/12/31 03:48:50;;;;;;;;;;;22.80;41.00;;;;;;1530693;76;868;-74
2020/12/31 03:50:52;;;;;;;;;;;22.80;41.00;;;;;;1531162;77;676;-74
2020/12/31 03:52:54;;;;;;;;;;;22.80;41.10;;;;;;1534624;76;1941;-75
2020/12/31 03:54:55;;;;;;;;;;;22.90;41.10;;;;;;1542692;75;674;-74
2020/12/31 03:56:57;;;;;;;;;;;22.80;41.00;;;;;;1542297;77;1126;-75
2020/12/31 03:58:59;;;;;;;;;;;22.90;41.10;;;;;;1545824;77;702;-74
2020/12/31 04:01:01;;;;;;;;;;;22.90;41.10;;;;;;1543345;77;750;-74
2020/12/31 04:03:03;;;;;;;;;;;22.80;41.00;;;;;;1544371;76;738;-74
2020/12/31 04:05:05;;;;;;;;;;;22.90;41.10;;;;;;1544364;75;878;-74
2020/12/31 04:07:07;;;;;;;;;;;22.90;41.10;;;;;;1544999;77;1156;-73
2020/12/31 04:09:09;;;;;;;;;;;22.90;41.10;;;;;;1541465;76;697;-73
2020/12/31 04:11:10;;;;;;;;;;;22.80;41.00;;;;;;1541956;77;752;-73
2020/12/31 04:13:12;;;;;;;;;;;22.80;41.20;;;;;;1540368;75;1928;-70
2020/12/31 04:15:14;;;;;;;;;;;22.80;41.30;;;;;;1542454;75;680;-73
2020/12/31 04:17:16;;;;;;;;;;;22.80;41.40;;;;;;1544711;75;1078;-73
2020/12/31 04:19:18;;;;;;;;;;;22.80;41.50;;;;;;1541237;77;736;-72
2020/12/31 04:21:23;;;;;;;;;;;22.80;41.40;;;;;;1544025;75;783;-72
2020/12/31 04:23:25;;;;;;;;;;;22.80;41.50;;;;;;1544130;76;620;-73
2020/12/31 04:25:26;;;;;;;;;;;22.80;41.50;;;;;;1541282;77;1130;-73
2020/12/31 04:27:28;;;;;;;;;;;22.70;41.40;;;;;;1564871;74;773;-73
2020/12/31 04:29:30;;;;;;;;;;;22.70;41.40;;;;;;1570612;74;730;-74
2020/12/31 04:31:33;;;;;;;;;;;22.70;41.40;;;;;;1567479;74;805;-73
2020/12/31 04:33:35;;;;;;;;;;;22.60;41.30;;;;;;1564933;74;1925;-73
2020/12/31 04:35:36;;;;;;;;;;;22.60;41.40;;;;;;1567938;74;1161;-73
2020/12/31 04:37:38;;;;;;;;;;;22.70;41.40;;;;;;1570514;74;759;-70
2020/12/31 04:39:40;;;;;;;;;;;22.60;41.50;;;;;;1569998;74;760;-69
2020/12/31 04:41:42;;;;;;;;;;;22.60;41.60;;;;;;1572483;74;745;-72
2020/12/31 04:43:44;;;;;;;;;;;22.60;41.70;;;;;;1570813;74;748;-74
2020/12/31 04:45:46;;;;;;;;;;;22.70;42.00;;;;;;1569857;76;1140;-74
2020/12/31 04:48:01;;;;;;;;;;;22.60;41.80;;;;;;1565993;74;728;-73
2020/12/31 04:50:03;;;;;;;;;;;22.70;42.00;;;;;;1567835;74;728;-73
2020/12/31 04:52:05;;;;;;;;;;;22.60;41.80;;;;;;1567346;74;739;-73
2020/12/31 04:54:07;;;;;;;;;;;22.70;42.00;;;;;;1569944;74;1982;-74
2020/12/31 04:56:09;;;;;;;;;;;22.70;42.00;;;;;;1570611;74;1136;-73
2020/12/31 04:58:12;;;;;;;;;;;22.70;42.00;;;;;;1568055;74;739;-75
2020/12/31 05:00:14;;;;;;;;;;;22.70;41.70;;;;;;1557731;74;949;-74
2020/12/31 05:02:15;;;;;;;;;;;22.70;41.90;;;;;;1573846;74;783;-74
2020/12/31 05:04:17;;;;;;;;;;;22.70;41.90;;;;;;1571823;74;657;-74
2020/12/31 05:06:19;;;;;;;;;;;22.80;41.90;;;;;;1559707;74;1107;-75
2020/12/31 05:08:23;;;;;;;;;;;22.80;41.80;;;;;;1574477;74;753;-75
2020/12/31 05:10:24;;;;;;;;;;;22.80;41.80;;;;;;1558486;74;1883;-73
2020/12/31 05:12:29;;;;;;;;;;;22.80;41.70;;;;;;1580251;74;802;-73
2020/12/31 05:14:31;;;;;;;;;;;22.70;41.60;;;;;;1568578;74;1941;-73
2020/12/31 05:16:33;;;;;;;;;;;22.80;41.70;;;;;;1573855;74;1150;-73
2020/12/31 05:18:35;;;;;;;;;;;22.70;41.70;;;;;;1553524;74;705;-73
2020/12/31 05:20:37;;;;;;;;;;;22.80;41.80;;;;;;1570574;74;727;-72
2020/12/31 05:22:39;;;;;;;;;;;22.70;41.60;;;;;;1569510;74;752;-74
2020/12/31 05:24:42;;;;;;;;;;;22.80;41.70;;;;;;1570408;74;770;-74
2020/12/31 05:26:44;;;;;;;;;;;22.80;41.50;;;;;;1570574;74;1193;-75
2020/12/31 05:28:46;;;;;;;;;;;22.80;41.50;;;;;;1566435;74;802;-74
2020/12/31 05:30:49;;;;;;;;;;;22.80;41.50;;;;;;1573456;74;1317;-72
2020/12/31 05:32:51;;;;;;;;;;;22.80;41.50;;;;;;1568637;74;698;-73
2020/12/31 05:34:54;;;;;;;;;;;22.80;41.60;;;;;;1570614;74;1923;-74
2020/12/31 05:36:56;;;;;;;;;;;22.80;41.60;;;;;;1566718;74;1101;-75
2020/12/31 05:39:02;;;;;;;;;;;22.80;41.70;;;;;;1559578;74;678;-75
2020/12/31 05:41:03;;;;;;;;;;;22.80;41.50;;;;;;1559985;74;753;-74
2020/12/31 05:43:05;;;;;;;;;;;22.80;41.70;;;;;;1572864;74;750;-73
2020/12/31 05:45:11;;;;;;;;;;;22.80;41.60;;;;;;1567970;74;752;-73
2020/12/31 05:47:15;;;;;;;;;;;22.90;41.70;;;;;;1558267;74;1171;-72
2020/12/31 05:49:16;;;;;;;;;;;22.90;41.60;;;;;;1564354;74;1914;-73
2020/12/31 05:51:22;;;;;;;;;;;22.90;41.80;;;;;;1555630;74;788;-73
2020/12/31 05:53:24;;;;;;;;;;;22.90;41.70;;;;;;1561427;74;1923;-73
2020/12/31 05:55:26;;;;;;;;;;;22.90;41.60;;;;;;1573283;74;1154;-71
2020/12/31 05:57:30;;;;;;;;;;;22.90;41.80;;;;;;1570299;74;794;-73
2020/12/31 05:59:31;;;;;;;;;;;22.90;41.70;;;;;;1569128;74;1593;-73
2020/12/31 06:01:36;;;;;;;;;;;22.90;41.60;;;;;;1566753;74;808;-73
2020/12/31 06:03:38;;;;;;;;;;;22.90;41.70;;;;;;1548555;74;814;-72
2020/12/31 06:05:40;;;;;;;;;;;22.90;41.60;;;;;;1567165;74;1133;-72
2020/12/31 06:07:44;;;;;;;;;;;22.90;41.50;;;;;;1547111;75;1333;-72
2020/12/31 06:09:46;;;;;;;;;;;22.90;41.50;;;;;;1555931;74;1799;-73
2020/12/31 06:11:47;;;;;;;;;;;22.90;41.40;;;;;;1569175;74;719;-73
2020/12/31 06:13:49;;;;;;;;;;;22.90;41.50;;;;;;1567871;74;1932;-72
2020/12/31 06:15:51;;;;;;;;;;;22.90;41.50;;;;;;1564350;76;1128;-73
2020/12/31 06:17:53;;;;;;;;;;;22.90;41.50;;;;;;1523545;75;1198;-72
2020/12/31 06:19:55;;;;;;;;;;;22.90;41.40;;;;;;1567568;74;753;-72
2020/12/31 06:22:01;;;;;;;;;;;23.00;41.50;;;;;;1551586;74;795;-72
2020/12/31 06:24:04;;;;;;;;;;;22.90;41.50;;;;;;1565374;74;817;-72
2020/12/31 06:26:07;;;;;;;;;;;22.90;41.40;;;;;;1563816;74;1141;-71
2020/12/31 06:28:12;;;;;;;;;;;22.90;41.30;;;;;;1570060;74;1425;-73
2020/12/31 06:30:14;;;;;;;;;;;22.90;41.20;;;;;;1567820;74;744;-72
2020/12/31 06:32:30;;;;;;;;;;;22.90;41.20;;;;;;1561799;74;725;-72
2020/12/31 06:34:32;;;;;;;;;;;23.00;41.20;;;;;;1560240;74;1930;-72
2020/12/31 06:36:35;;;;;;;;;;;23.00;41.10;;;;;;1569336;74;1123;-72
2020/12/31 06:38:39;;;;;;;;;;;23.00;41.00;;;;;;1559328;74;1197;-72
2020/12/31 06:40:41;;;;;;;;;;;23.00;41.10;;;;;;1568209;74;740;-72
2020/12/31 06:43:00;;;;;;;;;;;23.00;41.10;;;;;;1564360;74;799;-72
2020/12/31 06:45:02;;;;;;;;;;;23.00;41.00;;;;;;1563931;74;701;-72
2020/12/31 06:47:04;;;;;;;;;;;23.00;41.00;;;;;;1572343;75;1137;-68
2020/12/31 06:49:06;;;;;;;;;;;23.00;41.10;;;;;;1562685;74;712;-72
2020/12/31 06:51:11;;;;;;;;;;;23.00;41.00;;;;;;1567723;74;775;-73
2020/12/31 06:53:33;;;;;;;;;;;23.00;41.00;;;;;;1565391;74;752;-73
2020/12/31 06:55:36;;;;;;;;;;;23.00;41.20;;;;;;1558495;74;1152;-73
2020/12/31 06:57:38;;;;;;;;;;;23.00;41.20;;;;;;1545456;75;666;-74
2020/12/31 06:59:42;;;;;;;;;;;23.00;41.40;;;;;;1559789;74;750;-73
2020/12/31 07:01:44;;;;;;;;;;;23.10;41.50;;;;;;1556189;74;1966;-74
2020/12/31 07:03:45;;;;;;;;;;;23.00;41.30;;;;;;1559673;74;794;-73
2020/12/31 07:05:47;;;;;;;;;;;23.00;41.20;;;;;;1570728;74;1137;-73
2020/12/31 07:07:49;;;;;;;;;;;23.00;41.20;;;;;;1569903;74;787;-73
2020/12/31 07:09:51;;;;;;;;;;;23.10;41.30;;;;;;1560682;74;748;-73
2020/12/31 07:12:00;;;;;;;;;;;23.10;41.30;;;;;;1564002;74;832;-72
2020/12/31 07:14:03;;;;;;;;;;;23.10;41.10;;;;;;1553764;74;1935;-72
2020/12/31 07:16:04;;;;;;;;;;;23.10;41.30;;;;;;1556336;74;1126;-72
2020/12/31 07:18:06;;;;;;;;;;;23.10;41.30;;;;;;1557936;74;815;-72
2020/12/31 07:20:12;;;;;;;;;;;23.10;41.10;;;;;;1557016;75;1224;-73
2020/12/31 07:22:15;;;;;;;;;;;23.20;41.20;;;;;;1550355;74;784;-72
2020/12/31 07:24:20;;;;;;;;;;;23.10;41.10;;;;;;1553970;74;905;-73
2020/12/31 07:26:24;;;;;;;;;;;23.20;41.00;;;;;;1562485;74;1085;-72
2020/12/31 07:28:26;;;;;;;;;;;23.20;41.10;;;;;;1557631;74;1009;-71
2020/12/31 07:30:28;;;;;;;;;;;23.20;41.10;;;;;;1544871;75;873;-73
2020/12/31 07:32:49;;;;;;;;;;;23.20;41.00;;;;;;1539375;75;791;-73
2020/12/31 07:34:51;;;;;;;;;;;23.20;41.00;;;;;;1564698;74;1946;-73
2020/12/31 07:36:59;;;;;;;;;;;23.20;41.00;;;;;;1567271;74;1111;-73
2020/12/31 07:39:01;;;;;;;;;;;23.20;41.10;;;;;;1567956;74;776;-73
2020/12/31 07:41:03;;;;;;;;;;;23.10;41.00;;;;;;1567516;74;765;-73
2020/12/31 07:43:05;;;;;;;;;;;23.20;40.90;;;;;;1565117;74;758;-73
2020/12/31 07:45:07;;;;;;;;;;;23.20;41.00;;;;;;1562882;74;801;-73
2020/12/31 07:47:10;;;;;;;;;;;23.10;40.90;;;;;;1557409;74;1138;-71
2020/12/31 07:49:12;;;;;;;;;;;23.20;41.00;;;;;;1559512;74;726;-73
2020/12/31 07:51:14;;;;;;;;;;;23.20;40.90;;;;;;1559068;74;777;-73
2020/12/31 07:53:16;;;;;;;;;;;23.10;40.90;;;;;;1541806;75;1128;-73
2020/12/31 07:55:18;;;;;;;;;;;23.20;40.90;;;;;;1563694;74;1928;-73
2020/12/31 07:57:19;;;;;;;;;;;23.20;40.90;;;;;;1563753;74;1073;-73
2020/12/31 07:59:22;;;;;;;;;;;23.20;40.90;;;;;;1569630;74;701;-73
2020/12/31 08:01:24;;;;;;;;;;;23.10;40.80;;;;;;1558166;74;860;-73
2020/12/31 08:03:26;;;;;;;;;;;23.20;40.80;;;;;;1560755;74;755;-74
2020/12/31 08:05:27;;;;;;;;;;;23.10;40.70;;;;;;1557383;74;1095;-73
2020/12/31 08:07:29;;;;;;;;;;;23.20;40.90;;;;;;1556063;74;760;-73
2020/12/31 08:09:31;;;;;;;;;;;23.20;40.80;;;;;;1562596;74;777;-73
2020/12/31 08:11:33;;;;;;;;;;;23.20;40.80;;;;;;1567648;74;760;-74
2020/12/31 08:13:35;;;;;;;;;;;23.20;40.70;;;;;;1568293;74;807;-70
2020/12/31 08:15:37;;;;;;;;;;;23.20;40.70;;;;;;1568201;74;1925;-69
2020/12/31 08:17:39;;;;;;;;;;;23.30;40.80;;;;;;1568994;74;724;-70
2020/12/31 08:19:41;;;;;;;;;;;23.20;40.80;;;;;;1567784;74;907;-70
2020/12/31 08:21:43;;;;;;;;;;;23.30;40.90;;;;;;1566509;74;780;-73
2020/12/31 08:23:45;;;;;;;;;;;23.20;40.90;;;;;;1571925;74;803;-72
2020/12/31 08:25:48;;;;;;;;;;;23.20;40.80;;;;;;1567605;74;1090;-72
2020/12/31 08:27:50;;;;;;;;;;;23.30;40.90;;;;;;1562602;74;757;-73
2020/12/31 08:29:52;;;;;;;;;;;23.30;40.80;;;;;;1564144;74;802;-73
2020/12/31 08:31:54;;;;;;;;;;;23.20;40.70;;;;;;1568146;74;774;-74
2020/12/31 08:34:00;;;;;;;;;;;23.30;40.90;;;;;;1567834;74;650;-72
2020/12/31 08:36:01;;;;;;;;;;;23.20;40.70;;;;;;1567284;74;1118;-74
2020/12/31 08:38:05;;;;;;;;;;;23.30;40.80;;;;;;1568152;74;706;-71
2020/12/31 08:40:07;;;;;;;;;;;23.20;40.70;;;;;;1561381;74;716;-70
2020/12/31 08:42:09;;;;;;;;;;;23.20;40.50;;;;;;1567006;74;842;-71
2020/12/31 08:44:13;;;;;;;;;;;23.30;40.50;;;;;;1543231;75;1228;-71
2020/12/31 08:46:20;;;;;;;;;;;23.30;40.30;;;;;;1568617;74;1165;-71
2020/12/31 08:48:24;;;;;;;;;;;23.30;40.30;;;;;;1567820;74;1041;-72
2020/12/31 08:50:25;;;;;;;;;;;23.30;40.10;;;;;;1565719;74;727;-71
2020/12/31 08:52:28;;;;;;;;;;;23.30;40.10;;;;;;1562820;74;811;-71
2020/12/31 08:54:29;;;;;;;;;;;23.30;40.00;;;;;;1558238;74;1927;-71
2020/12/31 08:56:32;;;;;;;;;;;23.30;40.00;;;;;;1564222;74;1102;-71
2020/12/31 08:58:34;;;;;;;;;;;23.30;39.80;;;;;;1565787;76;815;-71
2020/12/31 09:00:35;;;;;;;;;;;23.30;40.10;;;;;;1566949;74;739;-71
2020/12/31 09:02:37;;;;;;;;;;;23.30;40.00;;;;;;1562500;76;830;-71
2020/12/31 09:04:39;;;;;;;;;;;23.30;39.90;;;;;;1572579;74;773;-70
2020/12/31 09:06:44;;;;;;;;;;;23.30;39.90;;;;;;1558227;74;1185;-71
2020/12/31 09:08:49;;;;;;;;;;;23.40;39.80;;;;;;1564922;74;860;-71
2020/12/31 09:11:03;;;;;;;;;;;23.40;39.90;;;;;;1566027;74;766;-71
2020/12/31 09:13:05;;;;;;;;;;;23.40;39.70;;;;;;1567072;74;742;-71
2020/12/31 09:15:07;;;;;;;;;;;23.30;39.80;;;;;;1569466;74;1938;-71
2020/12/31 09:17:24;;;;;;;;;;;23.30;39.70;;;;;;1568847;74;1121;-68
2020/12/31 09:19:26;;;;;;;;;;;23.30;39.60;;;;;;1565184;74;794;-70
2020/12/31 09:21:30;;;;;;;;;;;23.30;39.70;;;;;;1542753;75;732;-69
2020/12/31 09:23:32;;;;;;;;;;;23.30;39.60;;;;;;1570047;74;798;-71
2020/12/31 09:25:34;;;;;;;;;;;23.40;39.70;;;;;;1566237;74;1169;-70
2020/12/31 09:27:36;;;;;;;;;;;23.50;39.60;;;;;;1549781;74;2125;-78
2020/12/31 09:29:38;;;;;;;;;;;23.60;39.40;;;;;;1555309;75;815;-76
2020/12/31 09:31:40;;;;;;;;;;;23.50;39.20;;;;;;1523972;77;722;-76
2020/12/31 09:33:42;;;;;;;;;;;23.50;39.20;;;;;;1527870;77;888;-74
2020/12/31 09:35:44;;;;;;;;;;;23.50;39.30;;;;;;1524919;76;1952;-74
2020/12/31 09:37:46;;;;;;;;;;;23.40;39.20;;;;;;1555306;75;1138;-74
2020/12/31 09:39:48;;;;;;;;;;;23.40;39.10;;;;;;1577265;74;734;-74
2020/12/31 09:41:50;;;;;;;;;;;23.40;39.10;;;;;;1565017;75;739;-75
2020/12/31 09:43:52;;;;;;;;;;;23.50;39.00;;;;;;1579771;74;709;-74
2020/12/31 09:45:54;;;;;;;;;;;23.40;38.90;;;;;;1561625;75;689;-76
2020/12/31 09:47:57;;;;;;;;;;;23.40;38.90;;;;;;1557028;75;1158;-74
2020/12/31 09:49:58;;;;;;;;;;;23.40;38.80;;;;;;1559925;75;821;-72
2020/12/31 09:52:00;;;;;;;;;;;23.40;38.70;;;;;;1553864;75;723;-74
2020/12/31 09:54:02;;;;;;;;;;;23.40;38.60;;;;;;1558340;75;752;-74
2020/12/31 09:56:04;;;;;;;;;;;23.40;38.60;;;;;;1559270;75;1937;-75
2020/12/31 09:58:06;;;;;;;;;;;23.40;38.40;;;;;;1565367;74;637;-74
2020/12/31 10:00:08;;;;;;;;;;;23.30;38.20;;;;;;1555605;75;738;-73
2020/12/31 10:02:10;;;;;;;;;;;23.40;38.10;;;;;;1570301;74;761;-72
2020/12/31 10:04:12;;;;;;;;;;;23.40;38.20;;;;;;1577177;74;696;-71
2020/12/31 10:06:14;;;;;;;;;;;23.40;38.20;;;;;;1575645;75;1108;-71
2020/12/31 10:08:16;;;;;;;;;;;23.40;38.20;;;;;;1566244;75;795;-72
2020/12/31 10:10:18;;;;;;;;;;;23.30;37.90;;;;;;1570920;75;781;-73
2020/12/31 10:12:19;;;;;;;;;;;23.40;37.80;;;;;;1571479;75;754;-70
2020/12/31 10:14:21;;;;;;;;;;;23.40;38.00;;;;;;1569586;75;762;-71
2020/12/31 10:16:23;;;;;;;;;;;23.40;37.70;;;;;;1567487;75;1940;-71
2020/12/31 10:18:25;;;;;;;;;;;23.40;37.70;;;;;;1572156;75;742;-69
2020/12/31 10:20:27;;;;;;;;;;;23.40;37.60;;;;;;1552214;75;891;-71
2020/12/31 10:22:29;;;;;;;;;;;23.40;37.70;;;;;;1553818;75;748;-71
2020/12/31 10:24:31;;;;;;;;;;;23.40;37.60;;;;;;1582085;74;749;-74
2020/12/31 10:26:33;;;;;;;;;;;23.40;37.50;;;;;;1566213;75;1148;-72
2020/12/31 10:28:35;;;;;;;;;;;23.40;37.50;;;;;;1579200;74;835;-70
2020/12/31 10:30:37;;;;;;;;;;;23.40;37.60;;;;;;1583203;74;823;-71
2020/12/31 10:32:38;;;;;;;;;;;23.40;37.50;;;;;;1567913;75;747;-71
2020/12/31 10:34:41;;;;;;;;;;;23.40;37.60;;;;;;1572113;75;745;-72
2020/12/31 10:36:42;;;;;;;;;;;23.40;37.50;;;;;;1553192;75;1927;-74
2020/12/31 10:38:44;;;;;;;;;;;23.40;37.60;;;;;;1569581;75;774;-74
2020/12/31 10:40:46;;;;;;;;;;;23.40;37.70;;;;;;1547135;76;739;-74
2020/12/31 10:42:48;;;;;;;;;;;23.40;37.60;;;;;;1568710;75;738;-72
2020/12/31 10:44:50;;;;;;;;;;;23.50;37.60;;;;;;1552216;75;713;-72
2020/12/31 10:46:52;;;;;;;;;;;23.50;37.10;;;;;;1588662;74;1150;-73
2020/12/31 10:48:54;;;;;;;;;;;23.50;37.00;;;;;;1581886;74;756;-74
2020/12/31 10:50:58;;;;;;;;;;;23.50;36.70;;;;;;1592943;74;759;-73
2020/12/31 10:53:00;;;;;;;;;;;23.50;36.50;;;;;;1588709;73;1566;-72
2020/12/31 10:55:01;;;;;;;;;;;23.50;36.40;;;;;;1587890;74;1937;-73
2020/12/31 10:57:03;;;;;;;;;;;23.50;36.00;;;;;;1558405;75;1146;-76
2020/12/31 10:59:05;;;;;;;;;;;23.40;36.00;;;;;;1581311;74;609;-72
2020/12/31 11:01:07;;;;;;;;;;;23.40;35.70;;;;;;1556490;75;849;-72
2020/12/31 11:03:09;;;;;;;;;;;23.40;35.80;;;;;;1579763;74;757;-72
2020/12/31 11:05:11;;;;;;;;;;;23.40;35.70;;;;;;1560423;75;757;-74
2020/12/31 11:07:13;;;;;;;;;;;23.40;35.60;;;;;;1570675;75;1127;-73
2020/12/31 11:09:14;;;;;;;;;;;23.30;35.60;;;;;;1548083;76;775;-73
2020/12/31 11:11:21;;;;;;;;;;;23.40;35.70;;;;;;1557051;75;701;-72
2020/12/31 11:13:23;;;;;;;;;;;23.30;35.40;;;;;;1591918;74;1766;-72
2020/12/31 11:15:24;;;;;;;;;;;23.30;35.50;;;;;;1581342;74;1931;-73
2020/12/31 11:17:26;;;;;;;;;;;23.30;35.50;;;;;;1587086;74;1073;-72
2020/12/31 11:19:28;;;;;;;;;;;23.20;35.40;;;;;;1589916;74;718;-72
2020/12/31 11:21:30;;;;;;;;;;;23.30;35.30;;;;;;1573320;74;774;-72
2020/12/31 11:23:32;;;;;;;;;;;23.20;34.40;;;;;;1581494;74;724;-72
2020/12/31 11:25:34;;;;;;;;;;;23.20;34.70;;;;;;1586615;74;924;-72
2020/12/31 11:27:36;;;;;;;;;;;23.20;34.80;;;;;;1575616;74;1143;-72
2020/12/31 11:29:38;;;;;;;;;;;23.30;35.00;;;;;;1579828;74;830;-76
2020/12/31 11:31:40;;;;;;;;;;;23.40;34.90;;;;;;1573850;74;739;-73
2020/12/31 11:33:46;;;;;;;;;;;23.40;34.70;;;;;;1589754;74;773;-72
2020/12/31 11:35:48;;;;;;;;;;;23.30;34.30;;;;;;1576046;74;1915;-70
2020/12/31 11:37:50;;;;;;;;;;;23.40;34.30;;;;;;1571397;74;1137;-69
2020/12/31 11:39:52;;;;;;;;;;;23.30;34.80;;;;;;1578791;74;676;-69
2020/12/31 11:42:00;;;;;;;;;;;23.30;33.60;;;;;;1566991;74;801;-69
2020/12/31 11:44:02;;;;;;;;;;;23.40;33.30;;;;;;1560433;74;743;-70
2020/12/31 11:46:07;;;;;;;;;;;23.40;33.10;;;;;;1579277;74;1161;-72
2020/12/31 11:48:09;;;;;;;;;;;23.40;32.90;;;;;;1572105;74;727;-70
2020/12/31 11:50:11;;;;;;;;;;;23.40;33.10;;;;;;1588082;74;703;-69
2020/12/31 11:52:14;;;;;;;;;;;23.40;32.80;;;;;;1578661;74;700;-69
2020/12/31 11:54:16;;;;;;;;;;;23.40;32.50;;;;;;1578197;74;1082;-70
2020/12/31 11:56:18;;;;;;;;;;;23.40;32.30;;;;;;1573929;74;1939;-70
2020/12/31 11:58:20;;;;;;;;;;;23.40;32.00;;;;;;1578129;74;785;-71
2020/12/31 12:00:22;;;;;;;;;;;23.30;32.00;;;;;;1577911;74;715;-69
2020/12/31 12:02:24;;;;;;;;;;;23.30;31.90;;;;;;1587546;74;785;-71
2020/12/31 12:04:26;;;;;;;;;;;23.30;31.80;;;;;;1577795;74;736;-69
2020/12/31 12:06:28;;;;;;;;;;;23.30;31.50;;;;;;1576583;74;1156;-70
2020/12/31 12:08:30;;;;;;;;;;;23.30;31.10;;;;;;1587845;74;747;-69
2020/12/31 12:10:31;;;;;;;;;;;23.30;30.80;;;;;;1581606;74;717;-69